sensor_id;sensor_type;location;lat;lon;timestamp;pressure;altitude;pressure_sealevel;temperature;humidity
54459;BME280;40368;49.350;8.152;2023-11-19T00:00:03;1000.4;;;12.98;63.44
54459;BME280;40368;49.350;8.152;2023-11-19T00:01:03;1000.4;;;12.99;63.34
54459;BME280;40368;49.350;8.152;2023-11-19T00:02:03;1000.2;;;12.98;63.24
54459;BME280;40368;49.350;8.152;2023-11-19T00:04:03;1000.3;;;12.98;63
54459;BME280;40368;49.350;8.152;2023-11-19T00:05:03;1000.2;;;12.98;63.57
54459;BME280;40368;49.350;8.152;2023-11-19T00:06:03;1000.3;;;12.98;63.4
54459;BME280;40368;49.350;8.152;2023-11-19T00:07:03;1000.4;;;12.99;63.41
54459;BME280;40368;49.350;8.152;2023-11-19T00:08:03;1000.4;;;12.98;63.41
54459;BME280;40368;49.350;8.152;2023-11-19T00:09:03;1000.3;;;12.96;63.46
54459;BME280;40368;49.350;8.152;2023-11-19T00:10:03;1000.3;;;12.97;63.47
54459;BME280;40368;49.350;8.152;2023-11-19T00:11:03;1000.3;;;12.95;63.57
54459;BME280;40368;49.350;8.152;2023-11-19T00:12:03;1000.3;;;12.95;63.57
54459;BME280;40368;49.350;8.152;2023-11-19T00:13:03;1000.2;;;12.95;63.83
54459;BME280;40368;49.350;8.152;2023-11-19T00:14:03;1000.2;;;12.94;63.83
54459;BME280;40368;49.350;8.152;2023-11-19T00:15:03;1000.2;;;12.94;63.75
54459;BME280;40368;49.350;8.152;2023-11-19T00:16:03;1000.3;;;12.94;63.7
54459;BME280;40368;49.350;8.152;2023-11-19T00:17:03;1000.3;;;12.95;63.9
54459;BME280;40368;49.350;8.152;2023-11-19T00:18:03;1000.3;;;12.95;64.11
54459;BME280;40368;49.350;8.152;2023-11-19T00:19:03;1000.2;;;12.93;64.81
54459;BME280;40368;49.350;8.152;2023-11-19T00:20:03;1000.3;;;12.93;64.29
54459;BME280;40368;49.350;8.152;2023-11-19T00:22:03;1000.2;;;12.92;63.91
54459;BME280;40368;49.350;8.152;2023-11-19T00:23:03;1000.2;;;12.92;63.97
54459;BME280;40368;49.350;8.152;2023-11-19T00:24:03;1000.1;;;12.94;63.67
54459;BME280;40368;49.350;8.152;2023-11-19T00:25:03;1000.2;;;12.95;63.83
54459;BME280;40368;49.350;8.152;2023-11-19T00:26:03;1000.1;;;12.96;64.25
54459;BME280;40368;49.350;8.152;2023-11-19T00:27:03;1000;;;12.97;63.54
54459;BME280;40368;49.350;8.152;2023-11-19T00:28:03;1000;;;12.97;64.3
54459;BME280;40368;49.350;8.152;2023-11-19T00:29:04;1000;;;12.97;63.7
54459;BME280;40368;49.350;8.152;2023-11-19T00:30:04;999.8;;;12.97;63.5
54459;BME280;40368;49.350;8.152;2023-11-19T00:31:03;999.8;;;12.99;63.7
54459;BME280;40368;49.350;8.152;2023-11-19T00:32:04;999.9;;;12.99;63.64
54459;BME280;40368;49.350;8.152;2023-11-19T00:33:03;1000;;;12.99;63.52
54459;BME280;40368;49.350;8.152;2023-11-19T00:34:03;1000;;;13;63.23
54459;BME280;40368;49.350;8.152;2023-11-19T00:36:03;1000.1;;;13;63.6
54459;BME280;40368;49.350;8.152;2023-11-19T00:37:02;999.9;;;12.99;63.46
54459;BME280;40368;49.350;8.152;2023-11-19T00:38:03;1000;;;12.99;63.71
54459;BME280;40368;49.350;8.152;2023-11-19T00:39:03;1000;;;12.99;63.72
54459;BME280;40368;49.350;8.152;2023-11-19T00:40:03;999.9;;;13;63.6
54459;BME280;40368;49.350;8.152;2023-11-19T00:41:03;999.8;;;13.01;63.45
54459;BME280;40368;49.350;8.152;2023-11-19T00:42:03;999.9;;;13.01;63.65
54459;BME280;40368;49.350;8.152;2023-11-19T00:43:03;1000;;;13;63.73
54459;BME280;40368;49.350;8.152;2023-11-19T00:44:03;999.8;;;12.99;63.89
54459;BME280;40368;49.350;8.152;2023-11-19T00:45:03;999.9;;;12.99;63.62
54459;BME280;40368;49.350;8.152;2023-11-19T00:46:03;1000;;;13.01;63.31
54459;BME280;40368;49.350;8.152;2023-11-19T00:48:03;999.9;;;13.03;63.4
54459;BME280;40368;49.350;8.152;2023-11-19T00:49:03;999.9;;;13.02;63.24
54459;BME280;40368;49.350;8.152;2023-11-19T00:50:03;999.9;;;13.03;63.16
54459;BME280;40368;49.350;8.152;2023-11-19T00:51:03;1000;;;13.03;63.42
54459;BME280;40368;49.350;8.152;2023-11-19T00:52:03;1000;;;13.02;63.22
54459;BME280;40368;49.350;8.152;2023-11-19T00:53:03;1000.1;;;13.02;63.61
54459;BME280;40368;49.350;8.152;2023-11-19T00:54:03;999.9;;;13.02;63.9
54459;BME280;40368;49.350;8.152;2023-11-19T00:55:03;1000;;;12.99;63.68
54459;BME280;40368;49.350;8.152;2023-11-19T00:56:03;1000;;;12.99;64.19
54459;BME280;40368;49.350;8.152;2023-11-19T00:58:03;999.7;;;13.01;63.35
54459;BME280;40368;49.350;8.152;2023-11-19T00:59:03;999.7;;;13.02;63.19
54459;BME280;40368;49.350;8.152;2023-11-19T01:00:04;999.9;;;13.03;63.73
54459;BME280;40368;49.350;8.152;2023-11-19T01:02:03;1000;;;13;64.53
54459;BME280;40368;49.350;8.152;2023-11-19T01:04:09;999.8;;;12.99;63.54
54459;BME280;40368;49.350;8.152;2023-11-19T01:05:09;999.8;;;13;63.52
54459;BME280;40368;49.350;8.152;2023-11-19T01:07:04;999.8;;;13.02;63.69
54459;BME280;40368;49.350;8.152;2023-11-19T01:08:03;999.9;;;13.02;63.6
54459;BME280;40368;49.350;8.152;2023-11-19T01:09:03;999.8;;;13.02;63.53
54459;BME280;40368;49.350;8.152;2023-11-19T01:10:03;999.7;;;13.02;63.43
54459;BME280;40368;49.350;8.152;2023-11-19T01:11:03;999.7;;;13.03;63.43
54459;BME280;40368;49.350;8.152;2023-11-19T01:12:04;999.9;;;13.03;63.29
54459;BME280;40368;49.350;8.152;2023-11-19T01:13:03;999.8;;;13.03;63.03
54459;BME280;40368;49.350;8.152;2023-11-19T01:14:03;999.7;;;13.04;63.13
54459;BME280;40368;49.350;8.152;2023-11-19T01:15:03;999.8;;;13.03;63.49
54459;BME280;40368;49.350;8.152;2023-11-19T01:16:03;999.9;;;13.03;63.85
54459;BME280;40368;49.350;8.152;2023-11-19T01:17:03;999.8;;;13.04;63.66
54459;BME280;40368;49.350;8.152;2023-11-19T01:18:03;999.7;;;13.05;63.33
54459;BME280;40368;49.350;8.152;2023-11-19T01:19:03;999.8;;;13.04;63.62
54459;BME280;40368;49.350;8.152;2023-11-19T01:20:03;999.8;;;13.03;63.7
54459;BME280;40368;49.350;8.152;2023-11-19T01:21:03;999.8;;;13.04;63.46
54459;BME280;40368;49.350;8.152;2023-11-19T01:22:03;999.9;;;13.04;63.88
54459;BME280;40368;49.350;8.152;2023-11-19T01:23:03;999.8;;;13.03;63.87
54459;BME280;40368;49.350;8.152;2023-11-19T01:24:03;999.8;;;13.04;63.57
54459;BME280;40368;49.350;8.152;2023-11-19T01:27:03;999.9;;;13.03;64.23
54459;BME280;40368;49.350;8.152;2023-11-19T01:28:03;999.9;;;13.02;63.92
54459;BME280;40368;49.350;8.152;2023-11-19T01:29:03;999.9;;;13.02;64.38
54459;BME280;40368;49.350;8.152;2023-11-19T01:30:03;1000;;;13.03;64.79
54459;BME280;40368;49.350;8.152;2023-11-19T01:31:03;999.8;;;13.03;64.11
54459;BME280;40368;49.350;8.152;2023-11-19T01:32:03;999.9;;;13.03;63.95
54459;BME280;40368;49.350;8.152;2023-11-19T01:33:03;999.8;;;13.02;64.08
54459;BME280;40368;49.350;8.152;2023-11-19T01:34:02;999.9;;;13.01;64.7
54459;BME280;40368;49.350;8.152;2023-11-19T01:35:09;999.9;;;13.01;63.98
54459;BME280;40368;49.350;8.152;2023-11-19T01:36:12;999.9;;;13.02;64
54459;BME280;40368;49.350;8.152;2023-11-19T01:37:10;999.8;;;13.03;63.74
54459;BME280;40368;49.350;8.152;2023-11-19T01:38:03;999.8;;;13.04;63.63
54459;BME280;40368;49.350;8.152;2023-11-19T01:39:03;999.9;;;13.03;63.8
54459;BME280;40368;49.350;8.152;2023-11-19T01:40:03;999.9;;;13.04;63.46
54459;BME280;40368;49.350;8.152;2023-11-19T01:42:03;999.8;;;13.05;63.49
54459;BME280;40368;49.350;8.152;2023-11-19T01:43:03;999.8;;;13.05;63.53
54459;BME280;40368;49.350;8.152;2023-11-19T01:44:03;999.9;;;13.07;63.51
54459;BME280;40368;49.350;8.152;2023-11-19T01:45:03;999.7;;;13.07;63.45
54459;BME280;40368;49.350;8.152;2023-11-19T01:46:04;999.6;;;13.06;63.21
54459;BME280;40368;49.350;8.152;2023-11-19T01:47:03;999.7;;;13.07;63.36
54459;BME280;40368;49.350;8.152;2023-11-19T01:48:03;999.7;;;13.07;63.36
54459;BME280;40368;49.350;8.152;2023-11-19T01:49:03;999.7;;;13.07;62.93
54459;BME280;40368;49.350;8.152;2023-11-19T01:50:03;999.7;;;13.08;63.02
54459;BME280;40368;49.350;8.152;2023-11-19T01:51:03;999.8;;;13.08;62.96
54459;BME280;40368;49.350;8.152;2023-11-19T01:52:03;999.6;;;13.08;62.78
54459;BME280;40368;49.350;8.152;2023-11-19T01:53:03;999.7;;;13.08;63.08
54459;BME280;40368;49.350;8.152;2023-11-19T01:54:03;999.7;;;13.08;62.94
54459;BME280;40368;49.350;8.152;2023-11-19T01:55:03;999.5;;;13.07;63.04
54459;BME280;40368;49.350;8.152;2023-11-19T01:56:03;999.5;;;13.06;62.9
54459;BME280;40368;49.350;8.152;2023-11-19T01:58:03;999.7;;;13.05;63.25
54459;BME280;40368;49.350;8.152;2023-11-19T01:59:03;999.7;;;13.06;63.22
54459;BME280;40368;49.350;8.152;2023-11-19T02:00:03;999.6;;;13.04;63.5
54459;BME280;40368;49.350;8.152;2023-11-19T02:01:03;999.6;;;13.05;63.1
54459;BME280;40368;49.350;8.152;2023-11-19T02:02:03;999.6;;;13.04;63.15
54459;BME280;40368;49.350;8.152;2023-11-19T02:03:03;999.6;;;13.05;63.11
54459;BME280;40368;49.350;8.152;2023-11-19T02:04:03;999.6;;;13.04;64.11
54459;BME280;40368;49.350;8.152;2023-11-19T02:05:03;999.6;;;13.03;63.57
54459;BME280;40368;49.350;8.152;2023-11-19T02:06:03;999.7;;;13.02;63.76
54459;BME280;40368;49.350;8.152;2023-11-19T02:07:03;999.7;;;13.03;63.67
54459;BME280;40368;49.350;8.152;2023-11-19T02:08:03;999.7;;;13.04;63.56
54459;BME280;40368;49.350;8.152;2023-11-19T02:09:03;999.7;;;13.05;63.5
54459;BME280;40368;49.350;8.152;2023-11-19T02:10:03;999.6;;;13.05;63.17
54459;BME280;40368;49.350;8.152;2023-11-19T02:11:08;999.8;;;13.04;63.49
54459;BME280;40368;49.350;8.152;2023-11-19T02:12:03;999.7;;;13.03;63.85
54459;BME280;40368;49.350;8.152;2023-11-19T02:13:03;999.8;;;13.02;63.59
54459;BME280;40368;49.350;8.152;2023-11-19T02:14:03;999.7;;;13.03;63.86
54459;BME280;40368;49.350;8.152;2023-11-19T02:15:03;999.7;;;13.01;64.66
54459;BME280;40368;49.350;8.152;2023-11-19T02:16:04;999.6;;;12.99;64
54459;BME280;40368;49.350;8.152;2023-11-19T02:17:03;999.5;;;12.99;63.98
54459;BME280;40368;49.350;8.152;2023-11-19T02:18:19;999.5;;;13.01;64.01
54459;BME280;40368;49.350;8.152;2023-11-19T02:20:03;999.5;;;13.01;63.69
54459;BME280;40368;49.350;8.152;2023-11-19T02:21:03;999.5;;;13.03;63.51
54459;BME280;40368;49.350;8.152;2023-11-19T02:22:03;999.5;;;13.03;63.82
54459;BME280;40368;49.350;8.152;2023-11-19T02:23:03;999.4;;;13.02;63.85
54459;BME280;40368;49.350;8.152;2023-11-19T02:24:03;999.3;;;13.01;63.61
54459;BME280;40368;49.350;8.152;2023-11-19T02:27:10;999.2;;;13.01;63.62
54459;BME280;40368;49.350;8.152;2023-11-19T02:28:09;999.2;;;13.03;63.46
54459;BME280;40368;49.350;8.152;2023-11-19T02:29:02;999.2;;;13.02;63.68
54459;BME280;40368;49.350;8.152;2023-11-19T02:30:03;999.2;;;13.03;63.43
54459;BME280;40368;49.350;8.152;2023-11-19T02:31:03;999.1;;;13.04;63.32
54459;BME280;40368;49.350;8.152;2023-11-19T02:32:03;999.2;;;13.05;63.3
54459;BME280;40368;49.350;8.152;2023-11-19T02:33:03;999.3;;;13.06;63.44
54459;BME280;40368;49.350;8.152;2023-11-19T02:34:03;999.3;;;13.07;63.56
54459;BME280;40368;49.350;8.152;2023-11-19T02:35:03;999.3;;;13.05;63.72
54459;BME280;40368;49.350;8.152;2023-11-19T02:36:03;999.3;;;13.05;63.56
54459;BME280;40368;49.350;8.152;2023-11-19T02:37:03;999.4;;;13.06;63.5
54459;BME280;40368;49.350;8.152;2023-11-19T02:38:03;999.4;;;13.05;63.72
54459;BME280;40368;49.350;8.152;2023-11-19T02:39:03;999.5;;;13.05;63.35
54459;BME280;40368;49.350;8.152;2023-11-19T02:40:03;999.4;;;13.05;63.53
54459;BME280;40368;49.350;8.152;2023-11-19T02:41:04;999.3;;;13.06;63.05
54459;BME280;40368;49.350;8.152;2023-11-19T02:42:03;999.3;;;13.06;63.18
54459;BME280;40368;49.350;8.152;2023-11-19T02:43:03;999.4;;;13.06;63.23
54459;BME280;40368;49.350;8.152;2023-11-19T02:44:03;999.2;;;13.07;63.06
54459;BME280;40368;49.350;8.152;2023-11-19T02:45:03;999.2;;;13.09;63.14
54459;BME280;40368;49.350;8.152;2023-11-19T02:46:04;999.2;;;13.09;62.97
54459;BME280;40368;49.350;8.152;2023-11-19T02:47:04;999.3;;;13.1;62.82
54459;BME280;40368;49.350;8.152;2023-11-19T02:48:03;999.3;;;13.09;62.94
54459;BME280;40368;49.350;8.152;2023-11-19T02:49:03;999.3;;;13.08;62.79
54459;BME280;40368;49.350;8.152;2023-11-19T02:50:03;999.3;;;13.09;63.45
54459;BME280;40368;49.350;8.152;2023-11-19T02:51:03;999.4;;;13.08;63.26
54459;BME280;40368;49.350;8.152;2023-11-19T02:52:03;999.4;;;13.08;63.06
54459;BME280;40368;49.350;8.152;2023-11-19T02:53:03;999.3;;;13.08;63.23
54459;BME280;40368;49.350;8.152;2023-11-19T02:54:03;999.4;;;13.09;63.16
54459;BME280;40368;49.350;8.152;2023-11-19T02:55:03;999.4;;;13.09;63.42
54459;BME280;40368;49.350;8.152;2023-11-19T02:56:03;999.3;;;13.08;63.69
54459;BME280;40368;49.350;8.152;2023-11-19T02:57:03;999.2;;;13.08;63.3
54459;BME280;40368;49.350;8.152;2023-11-19T02:58:03;999.2;;;13.08;63.31
54459;BME280;40368;49.350;8.152;2023-11-19T02:59:03;999.1;;;13.1;63.37
54459;BME280;40368;49.350;8.152;2023-11-19T03:00:03;999.2;;;13.09;63.42
54459;BME280;40368;49.350;8.152;2023-11-19T03:01:03;999.1;;;13.09;63.55
54459;BME280;40368;49.350;8.152;2023-11-19T03:02:03;999;;;13.09;63.27
54459;BME280;40368;49.350;8.152;2023-11-19T03:03:03;999.1;;;13.09;63.77
54459;BME280;40368;49.350;8.152;2023-11-19T03:04:03;999.2;;;13.08;63.99
54459;BME280;40368;49.350;8.152;2023-11-19T03:05:03;999.1;;;13.06;64.49
54459;BME280;40368;49.350;8.152;2023-11-19T03:06:03;999;;;13.06;64.06
54459;BME280;40368;49.350;8.152;2023-11-19T03:07:03;999;;;13.06;64.06
54459;BME280;40368;49.350;8.152;2023-11-19T03:08:03;999;;;13.05;64.06
54459;BME280;40368;49.350;8.152;2023-11-19T03:09:03;999;;;13.05;63.67
54459;BME280;40368;49.350;8.152;2023-11-19T03:11:03;999;;;13.06;63.96
54459;BME280;40368;49.350;8.152;2023-11-19T03:13:03;999.1;;;13.06;63.68
54459;BME280;40368;49.350;8.152;2023-11-19T03:14:03;999.1;;;13.06;64.01
54459;BME280;40368;49.350;8.152;2023-11-19T03:15:03;999.2;;;13.06;63.77
54459;BME280;40368;49.350;8.152;2023-11-19T03:16:03;999.1;;;13.06;63.67
54459;BME280;40368;49.350;8.152;2023-11-19T03:17:03;999.1;;;13.08;63.45
54459;BME280;40368;49.350;8.152;2023-11-19T03:18:03;999.1;;;13.06;63.85
54459;BME280;40368;49.350;8.152;2023-11-19T03:19:03;999.2;;;13.06;63.73
54459;BME280;40368;49.350;8.152;2023-11-19T03:20:04;999.1;;;13.06;63.53
54459;BME280;40368;49.350;8.152;2023-11-19T03:21:03;999.1;;;13.06;63.39
54459;BME280;40368;49.350;8.152;2023-11-19T03:23:03;999.1;;;13.06;63.91
54459;BME280;40368;49.350;8.152;2023-11-19T03:24:03;999.1;;;13.06;63.52
54459;BME280;40368;49.350;8.152;2023-11-19T03:25:04;999.1;;;13.06;63.53
54459;BME280;40368;49.350;8.152;2023-11-19T03:26:03;999;;;13.05;63.89
54459;BME280;40368;49.350;8.152;2023-11-19T03:27:03;999;;;13.05;63.97
54459;BME280;40368;49.350;8.152;2023-11-19T03:28:03;998.8;;;13.05;63.64
54459;BME280;40368;49.350;8.152;2023-11-19T03:29:03;999.1;;;13.04;64.51
54459;BME280;40368;49.350;8.152;2023-11-19T03:30:03;999;;;13.03;63.66
54459;BME280;40368;49.350;8.152;2023-11-19T03:31:04;998.9;;;13.05;63.31
54459;BME280;40368;49.350;8.152;2023-11-19T03:32:03;999;;;13.05;63.7
54459;BME280;40368;49.350;8.152;2023-11-19T03:33:03;999;;;13.05;63.39
54459;BME280;40368;49.350;8.152;2023-11-19T03:34:03;999;;;13.06;63.26
54459;BME280;40368;49.350;8.152;2023-11-19T03:35:04;999;;;13.07;63.23
54459;BME280;40368;49.350;8.152;2023-11-19T03:36:03;999;;;13.07;63.65
54459;BME280;40368;49.350;8.152;2023-11-19T03:37:03;999;;;13.07;63.32
54459;BME280;40368;49.350;8.152;2023-11-19T03:39:03;999;;;13.07;63.16
54459;BME280;40368;49.350;8.152;2023-11-19T03:40:03;998.9;;;13.08;63.05
54459;BME280;40368;49.350;8.152;2023-11-19T03:41:09;998.9;;;13.08;63.4
54459;BME280;40368;49.350;8.152;2023-11-19T03:42:03;998.9;;;13.09;63.3
54459;BME280;40368;49.350;8.152;2023-11-19T03:43:03;998.9;;;13.08;63.92
54459;BME280;40368;49.350;8.152;2023-11-19T03:45:03;998.8;;;13.06;63.55
54459;BME280;40368;49.350;8.152;2023-11-19T03:46:03;998.8;;;13.07;63.48
54459;BME280;40368;49.350;8.152;2023-11-19T03:47:03;998.9;;;13.07;63.37
54459;BME280;40368;49.350;8.152;2023-11-19T03:48:04;998.8;;;13.06;63.74
54459;BME280;40368;49.350;8.152;2023-11-19T03:49:09;998.7;;;13.05;63.74
54459;BME280;40368;49.350;8.152;2023-11-19T03:50:09;998.8;;;13.06;63.61
54459;BME280;40368;49.350;8.152;2023-11-19T03:52:03;998.9;;;13.06;63.26
54459;BME280;40368;49.350;8.152;2023-11-19T03:53:03;998.8;;;13.06;63.43
54459;BME280;40368;49.350;8.152;2023-11-19T03:54:03;998.7;;;13.08;63.22
54459;BME280;40368;49.350;8.152;2023-11-19T03:55:03;998.6;;;13.03;64.52
54459;BME280;40368;49.350;8.152;2023-11-19T03:56:03;998.6;;;13.01;65.2
54459;BME280;40368;49.350;8.152;2023-11-19T03:57:03;998.7;;;12.99;64.9
54459;BME280;40368;49.350;8.152;2023-11-19T03:58:03;998.7;;;13.01;64.41
54459;BME280;40368;49.350;8.152;2023-11-19T03:59:03;998.9;;;13.02;64
54459;BME280;40368;49.350;8.152;2023-11-19T04:00:03;998.6;;;13.02;63.87
54459;BME280;40368;49.350;8.152;2023-11-19T04:01:03;998.6;;;13.03;63.87
54459;BME280;40368;49.350;8.152;2023-11-19T04:02:03;998.7;;;13.05;63.95
54459;BME280;40368;49.350;8.152;2023-11-19T04:03:03;998.8;;;13.06;64.87
54459;BME280;40368;49.350;8.152;2023-11-19T04:04:03;998.7;;;13.06;64.13
54459;BME280;40368;49.350;8.152;2023-11-19T04:05:03;998.7;;;13.04;64.81
54459;BME280;40368;49.350;8.152;2023-11-19T04:06:03;998.7;;;13.04;64.68
54459;BME280;40368;49.350;8.152;2023-11-19T04:07:03;998.7;;;13.02;65.22
54459;BME280;40368;49.350;8.152;2023-11-19T04:08:03;998.7;;;13.03;64.87
54459;BME280;40368;49.350;8.152;2023-11-19T04:09:03;998.7;;;13.04;64.73
54459;BME280;40368;49.350;8.152;2023-11-19T04:10:04;998.7;;;13.04;64.68
54459;BME280;40368;49.350;8.152;2023-11-19T04:11:03;998.6;;;13.04;65.05
54459;BME280;40368;49.350;8.152;2023-11-19T04:12:03;998.8;;;13.03;65.32
54459;BME280;40368;49.350;8.152;2023-11-19T04:13:03;998.8;;;13.02;67.05
54459;BME280;40368;49.350;8.152;2023-11-19T04:14:03;998.8;;;12.97;66.7
54459;BME280;40368;49.350;8.152;2023-11-19T04:15:03;998.7;;;12.94;65.75
54459;BME280;40368;49.350;8.152;2023-11-19T04:16:03;998.7;;;12.97;65.54
54459;BME280;40368;49.350;8.152;2023-11-19T04:17:03;998.9;;;12.98;65.81
54459;BME280;40368;49.350;8.152;2023-11-19T04:18:03;998.9;;;13.01;66.11
54459;BME280;40368;49.350;8.152;2023-11-19T04:19:03;998.9;;;13.02;66.27
54459;BME280;40368;49.350;8.152;2023-11-19T04:20:03;998.8;;;13.03;65.93
54459;BME280;40368;49.350;8.152;2023-11-19T04:21:05;998.7;;;13.03;65.44
54459;BME280;40368;49.350;8.152;2023-11-19T04:22:03;998.8;;;13.02;66.05
54459;BME280;40368;49.350;8.152;2023-11-19T04:23:03;998.8;;;13.02;65.71
54459;BME280;40368;49.350;8.152;2023-11-19T04:24:03;998.9;;;13.02;67.3
54459;BME280;40368;49.350;8.152;2023-11-19T04:25:03;998.9;;;12.99;68.2
54459;BME280;40368;49.350;8.152;2023-11-19T04:26:03;999;;;12.98;70.11
54459;BME280;40368;49.350;8.152;2023-11-19T04:28:03;998.9;;;12.97;69.36
54459;BME280;40368;49.350;8.152;2023-11-19T04:29:03;998.7;;;12.98;69.56
54459;BME280;40368;49.350;8.152;2023-11-19T04:30:03;998.6;;;12.98;69.81
54459;BME280;40368;49.350;8.152;2023-11-19T04:31:03;998.6;;;13;71.23
54459;BME280;40368;49.350;8.152;2023-11-19T04:32:03;998.5;;;13;69.57
54459;BME280;40368;49.350;8.152;2023-11-19T04:34:03;998.5;;;13.04;71.47
54459;BME280;40368;49.350;8.152;2023-11-19T04:35:03;998.6;;;13.03;70.75
54459;BME280;40368;49.350;8.152;2023-11-19T04:36:03;998.6;;;13.01;70.94
54459;BME280;40368;49.350;8.152;2023-11-19T04:37:03;998.6;;;13.01;72.39
54459;BME280;40368;49.350;8.152;2023-11-19T04:38:03;998.7;;;12.99;73.16
54459;BME280;40368;49.350;8.152;2023-11-19T04:39:03;998.7;;;13;72.93
54459;BME280;40368;49.350;8.152;2023-11-19T04:40:03;998.6;;;13.01;71.67
54459;BME280;40368;49.350;8.152;2023-11-19T04:41:03;998.8;;;13.03;73.33
54459;BME280;40368;49.350;8.152;2023-11-19T04:42:03;998.7;;;13.04;71.49
54459;BME280;40368;49.350;8.152;2023-11-19T04:43:03;998.8;;;13.06;72.4
54459;BME280;40368;49.350;8.152;2023-11-19T04:44:03;998.7;;;13.06;73.4
54459;BME280;40368;49.350;8.152;2023-11-19T04:46:03;998.7;;;13.05;74.13
54459;BME280;40368;49.350;8.152;2023-11-19T04:47:03;998.7;;;13.06;74.01
54459;BME280;40368;49.350;8.152;2023-11-19T04:48:03;998.9;;;13.06;73.84
54459;BME280;40368;49.350;8.152;2023-11-19T04:49:03;998.7;;;13.07;74.27
54459;BME280;40368;49.350;8.152;2023-11-19T04:50:02;998.7;;;13.09;73.65
54459;BME280;40368;49.350;8.152;2023-11-19T04:51:04;998.6;;;13.08;72.78
54459;BME280;40368;49.350;8.152;2023-11-19T04:52:03;998.6;;;13.07;73.46
54459;BME280;40368;49.350;8.152;2023-11-19T04:53:03;998.6;;;13.08;75
54459;BME280;40368;49.350;8.152;2023-11-19T04:54:03;998.6;;;13.08;73.97
54459;BME280;40368;49.350;8.152;2023-11-19T04:55:03;998.6;;;13.09;73.8
54459;BME280;40368;49.350;8.152;2023-11-19T04:56:07;998.6;;;13.1;74.41
54459;BME280;40368;49.350;8.152;2023-11-19T04:57:03;998.6;;;13.1;74.78
54459;BME280;40368;49.350;8.152;2023-11-19T04:58:03;998.6;;;13.11;75.09
54459;BME280;40368;49.350;8.152;2023-11-19T04:59:03;998.6;;;13.13;74.4
54459;BME280;40368;49.350;8.152;2023-11-19T05:00:03;998.6;;;13.13;74.16
54459;BME280;40368;49.350;8.152;2023-11-19T05:02:03;998.6;;;13.15;74.57
54459;BME280;40368;49.350;8.152;2023-11-19T05:03:03;998.7;;;13.17;75.19
54459;BME280;40368;49.350;8.152;2023-11-19T05:04:03;998.6;;;13.18;74.75
54459;BME280;40368;49.350;8.152;2023-11-19T05:05:03;998.6;;;13.18;74.71
54459;BME280;40368;49.350;8.152;2023-11-19T05:06:03;998.7;;;13.18;74.75
54459;BME280;40368;49.350;8.152;2023-11-19T05:07:03;998.6;;;13.2;73.18
54459;BME280;40368;49.350;8.152;2023-11-19T05:08:03;998.7;;;13.21;75.3
54459;BME280;40368;49.350;8.152;2023-11-19T05:09:03;998.7;;;13.21;75.34
54459;BME280;40368;49.350;8.152;2023-11-19T05:10:03;998.6;;;13.21;74.69
54459;BME280;40368;49.350;8.152;2023-11-19T05:11:03;998.6;;;13.22;74.18
54459;BME280;40368;49.350;8.152;2023-11-19T05:12:03;998.7;;;13.22;74.52
54459;BME280;40368;49.350;8.152;2023-11-19T05:13:03;998.6;;;13.23;73.91
54459;BME280;40368;49.350;8.152;2023-11-19T05:14:03;998.6;;;13.24;74.08
54459;BME280;40368;49.350;8.152;2023-11-19T05:15:03;998.7;;;13.24;74.88
54459;BME280;40368;49.350;8.152;2023-11-19T05:16:03;998.7;;;13.24;73.93
54459;BME280;40368;49.350;8.152;2023-11-19T05:17:03;998.7;;;13.24;74.99
54459;BME280;40368;49.350;8.152;2023-11-19T05:18:03;998.7;;;13.26;74.73
54459;BME280;40368;49.350;8.152;2023-11-19T05:19:03;998.6;;;13.26;75.36
54459;BME280;40368;49.350;8.152;2023-11-19T05:20:03;998.6;;;13.27;75.58
54459;BME280;40368;49.350;8.152;2023-11-19T05:21:03;998.7;;;13.27;75.35
54459;BME280;40368;49.350;8.152;2023-11-19T05:22:03;998.7;;;13.26;74.56
54459;BME280;40368;49.350;8.152;2023-11-19T05:23:03;998.7;;;13.25;74.8
54459;BME280;40368;49.350;8.152;2023-11-19T05:24:03;998.6;;;13.24;73.15
54459;BME280;40368;49.350;8.152;2023-11-19T05:25:03;998.5;;;13.25;73.7
54459;BME280;40368;49.350;8.152;2023-11-19T05:26:03;998.6;;;13.26;74.98
54459;BME280;40368;49.350;8.152;2023-11-19T05:27:03;998.7;;;13.27;73.67
54459;BME280;40368;49.350;8.152;2023-11-19T05:28:03;998.6;;;13.28;74.44
54459;BME280;40368;49.350;8.152;2023-11-19T05:29:03;998.6;;;13.29;75.31
54459;BME280;40368;49.350;8.152;2023-11-19T05:30:03;998.6;;;13.29;74.59
54459;BME280;40368;49.350;8.152;2023-11-19T05:31:03;998.6;;;13.3;73.94
54459;BME280;40368;49.350;8.152;2023-11-19T05:32:03;998.5;;;13.3;75.54
54459;BME280;40368;49.350;8.152;2023-11-19T05:33:03;998.5;;;13.32;75.26
54459;BME280;40368;49.350;8.152;2023-11-19T05:34:03;998.5;;;13.32;74.37
54459;BME280;40368;49.350;8.152;2023-11-19T05:35:04;998.6;;;13.32;75.24
54459;BME280;40368;49.350;8.152;2023-11-19T05:36:03;998.6;;;13.32;75.4
54459;BME280;40368;49.350;8.152;2023-11-19T05:37:03;998.5;;;13.3;75.19
54459;BME280;40368;49.350;8.152;2023-11-19T05:38:03;998.6;;;13.3;74.03
54459;BME280;40368;49.350;8.152;2023-11-19T05:39:03;998.6;;;13.31;75.32
54459;BME280;40368;49.350;8.152;2023-11-19T05:40:03;998.6;;;13.33;74.49
54459;BME280;40368;49.350;8.152;2023-11-19T05:41:03;998.7;;;13.33;75.56
54459;BME280;40368;49.350;8.152;2023-11-19T05:42:03;998.6;;;13.34;74.3
54459;BME280;40368;49.350;8.152;2023-11-19T05:43:03;998.5;;;13.33;73.36
54459;BME280;40368;49.350;8.152;2023-11-19T05:44:03;998.5;;;13.32;74.68
54459;BME280;40368;49.350;8.152;2023-11-19T05:45:03;998.6;;;13.36;75.71
54459;BME280;40368;49.350;8.152;2023-11-19T05:46:03;998.5;;;13.34;73.87
54459;BME280;40368;49.350;8.152;2023-11-19T05:47:03;998.5;;;13.33;74.16
54459;BME280;40368;49.350;8.152;2023-11-19T05:48:03;998.5;;;13.33;74.29
54459;BME280;40368;49.350;8.152;2023-11-19T05:49:03;998.4;;;13.33;74.77
54459;BME280;40368;49.350;8.152;2023-11-19T05:50:03;998.3;;;13.33;74.28
54459;BME280;40368;49.350;8.152;2023-11-19T05:51:03;998.4;;;13.34;74.27
54459;BME280;40368;49.350;8.152;2023-11-19T05:52:03;998.3;;;13.36;73.38
54459;BME280;40368;49.350;8.152;2023-11-19T05:53:03;998.4;;;13.38;73.97
54459;BME280;40368;49.350;8.152;2023-11-19T05:54:03;998.2;;;13.39;75.02
54459;BME280;40368;49.350;8.152;2023-11-19T05:55:03;998.4;;;13.4;74.06
54459;BME280;40368;49.350;8.152;2023-11-19T05:56:03;998.4;;;13.41;74.18
54459;BME280;40368;49.350;8.152;2023-11-19T05:57:04;998.3;;;13.42;74.1